createdAt,value
2022-07-29T03:02:09.516Z,17.25
2022-07-29T03:04:41.362Z,17.47
2022-07-29T03:07:11.041Z,17.40
2022-07-29T03:09:39.986Z,17.46
2022-07-29T03:12:07.957Z,17.66
2022-07-29T03:14:37.182Z,17.83
2022-07-29T03:17:07.974Z,17.89
2022-07-29T03:19:35.479Z,17.72
2022-07-29T03:22:03.399Z,17.76
2022-07-29T03:24:33.675Z,17.58
2022-07-29T03:27:02.264Z,17.56
2022-07-29T03:29:33.690Z,17.35
2022-07-29T03:32:07.203Z,17.49
2022-07-29T03:34:37.712Z,17.13
2022-07-29T03:37:09.459Z,17.14
2022-07-29T03:39:42.040Z,17.40
2022-07-29T03:42:13.197Z,17.38
2022-07-29T03:44:44.106Z,17.40
2022-07-29T03:47:14.627Z,17.21
2022-07-29T03:49:43.311Z,16.91
2022-07-29T03:52:10.990Z,16.83
2022-07-29T03:54:39.809Z,17.00
2022-07-29T03:57:08.577Z,16.99
2022-07-29T03:59:36.719Z,17.22
2022-07-29T04:02:06.579Z,17.01
2022-07-29T04:04:36.307Z,17.29
2022-07-29T04:07:04.681Z,17.43
2022-07-29T04:09:32.422Z,17.51
2022-07-29T04:12:03.451Z,17.55
2022-07-29T04:14:35.696Z,17.51
2022-07-29T04:17:05.070Z,17.65
2022-07-29T04:19:33.352Z,17.70
2022-07-29T04:22:01.589Z,17.85
2022-07-29T04:24:30.030Z,17.72
2022-07-29T04:26:57.375Z,17.85
2022-07-29T04:29:24.756Z,17.95
2022-07-29T04:31:52.711Z,17.71
2022-07-29T04:34:21.465Z,17.81
2022-07-29T04:36:48.817Z,17.93
2022-07-29T04:39:22.174Z,17.95
2022-07-29T04:41:54.995Z,17.71
2022-07-29T04:44:28.810Z,17.94
2022-07-29T04:46:56.983Z,17.87
2022-07-29T04:49:24.965Z,17.67
2022-07-29T04:51:52.421Z,17.93
2022-07-29T04:54:19.898Z,18.03
2022-07-29T04:56:47.725Z,17.93
2022-07-29T04:59:15.262Z,17.87
2022-07-29T05:01:42.729Z,17.79
2022-07-29T05:04:10.928Z,17.93
2022-07-29T05:06:38.478Z,18.05
2022-07-29T05:09:05.846Z,18.32
2022-07-29T05:11:33.562Z,18.36
2022-07-29T05:14:00.999Z,18.74
2022-07-29T05:16:29.035Z,18.47
2022-07-29T05:18:56.777Z,18.45
2022-07-29T05:21:24.139Z,18.53
2022-07-29T05:23:51.560Z,18.94
2022-07-29T05:26:19.369Z,18.94
2022-07-29T05:28:46.726Z,18.92
2022-07-29T05:31:15.842Z,18.67
2022-07-29T05:33:44.025Z,18.88
2022-07-29T05:36:11.418Z,18.97
2022-07-29T05:38:40.029Z,18.94
2022-07-29T05:41:07.954Z,18.95
2022-07-29T05:43:35.329Z,18.75
2022-07-29T05:46:02.725Z,18.84
2022-07-29T05:48:30.953Z,18.94
2022-07-29T05:50:58.359Z,18.93
2022-07-29T05:53:25.761Z,19.20
2022-07-29T05:55:53.626Z,19.44
2022-07-29T05:58:21.538Z,19.49
2022-07-29T06:00:49.061Z,19.71
2022-07-29T06:03:16.940Z,19.73
2022-07-29T06:05:44.455Z,19.85
2022-07-29T06:08:11.974Z,19.91
2022-07-29T06:10:39.817Z,19.79
2022-07-29T06:13:07.386Z,19.71
2022-07-29T06:15:35.298Z,19.84
2022-07-29T06:18:03.264Z,20.11
2022-07-29T06:20:32.414Z,20.25
2022-07-29T06:23:00.670Z,20.20
2022-07-29T06:25:33.518Z,20.45
2022-07-29T06:28:00.920Z,20.64
2022-07-29T06:30:29.879Z,20.61
2022-07-29T06:32:57.272Z,20.71
2022-07-29T06:35:38.385Z,20.90
2022-07-29T06:38:34.110Z,21.05
2022-07-29T06:41:01.211Z,21.19
2022-07-29T06:43:52.079Z,21.46
2022-07-29T06:46:23.398Z,21.68
2022-07-29T06:48:52.920Z,21.73
2022-07-29T06:51:23.171Z,21.83
2022-07-29T06:53:59.631Z,21.98
2022-07-29T06:56:39.327Z,22.20
2022-07-29T06:59:11.789Z,22.21
2022-07-29T07:01:41.618Z,22.42
2022-07-29T07:04:10.535Z,22.37
2022-07-29T07:06:41.059Z,22.48
2022-07-29T07:09:08.809Z,22.55
2022-07-29T07:11:36.559Z,22.79
2022-07-29T07:14:04.484Z,22.73
2022-07-29T07:16:33.122Z,22.81
2022-07-29T07:19:01.253Z,23.17
2022-07-29T07:21:30.191Z,23.29
2022-07-29T07:23:59.399Z,23.23
2022-07-29T07:26:27.551Z,23.20
2022-07-29T07:28:55.061Z,23.20
2022-07-29T07:31:22.845Z,23.33
2022-07-29T07:33:50.298Z,23.30
2022-07-29T07:36:17.740Z,23.51
2022-07-29T07:38:45.802Z,23.45
2022-07-29T07:41:13.189Z,23.61
2022-07-29T07:43:40.627Z,23.83
2022-07-29T07:46:08.462Z,23.63
2022-07-29T07:48:37.303Z,23.72
2022-07-29T07:51:04.878Z,23.81
2022-07-29T07:53:32.673Z,24.01
2022-07-29T07:56:10.462Z,24.08
2022-07-29T07:58:39.955Z,24.18
2022-07-29T08:01:07.721Z,24.07
2022-07-29T08:03:35.684Z,24.17
2022-07-29T08:06:04.509Z,24.23
2022-07-29T08:08:31.965Z,24.21
2022-07-29T08:11:02.269Z,24.41
2022-07-29T08:13:35.574Z,24.28
2022-07-29T08:16:12.032Z,24.40
2022-07-29T08:18:41.715Z,24.81
2022-07-29T08:21:09.523Z,24.75
2022-07-29T08:23:47.087Z,24.70
2022-07-29T08:26:16.842Z,25.09
2022-07-29T08:28:46.984Z,25.21
2022-07-29T08:31:15.055Z,25.26
2022-07-29T08:33:43.562Z,25.29
2022-07-29T08:36:11.654Z,24.99
2022-07-29T08:38:39.106Z,25.21
2022-07-29T08:41:07.264Z,25.33
2022-07-29T08:43:38.486Z,25.22
2022-07-29T08:46:06.093Z,25.31
2022-07-29T08:48:37.911Z,25.46
2022-07-29T08:51:08.213Z,25.56
2022-07-29T08:53:39.181Z,25.64
2022-07-29T08:56:07.259Z,25.70
2022-07-29T08:58:37.041Z,25.88
2022-07-29T09:01:12.426Z,25.75
2022-07-29T09:03:42.764Z,25.97
2022-07-29T09:06:15.398Z,26.34
2022-07-29T09:08:43.552Z,26.10
2022-07-29T09:11:12.801Z,26.02
2022-07-29T09:13:40.657Z,26.17
2022-07-29T09:16:09.611Z,26.20
2022-07-29T09:18:46.016Z,26.44
2022-07-29T09:21:34.873Z,26.46
2022-07-29T09:24:12.509Z,26.59
2022-07-29T09:26:45.514Z,26.81
2022-07-29T09:29:21.713Z,27.07
2022-07-29T09:31:52.287Z,27.07
2022-07-29T09:34:25.675Z,27.14
2022-07-29T09:36:55.254Z,27.29
2022-07-29T09:39:32.078Z,27.31
2022-07-29T09:42:02.842Z,27.31
2022-07-29T09:44:51.726Z,27.25
2022-07-29T09:47:22.829Z,27.46
2022-07-29T09:49:59.445Z,27.59
2022-07-29T09:52:28.426Z,27.62
2022-07-29T09:55:07.544Z,27.62
2022-07-29T09:57:35.003Z,27.78
2022-07-29T10:00:08.324Z,27.72
2022-07-29T10:02:41.149Z,27.92
2022-07-29T10:05:26.746Z,27.94
2022-07-29T10:08:04.043Z,27.99
2022-07-29T10:10:34.978Z,27.95
2022-07-29T10:13:16.513Z,27.87
2022-07-29T10:15:46.914Z,28.03
2022-07-29T10:18:15.772Z,28.08
2022-07-29T10:20:43.236Z,28.52
2022-07-29T10:23:11.425Z,28.10
2022-07-29T10:25:38.942Z,28.36
2022-07-29T10:28:07.209Z,28.30
2022-07-29T10:30:35.664Z,28.28
2022-07-29T10:33:15.916Z,28.59
2022-07-29T10:36:02.212Z,28.57
2022-07-29T10:38:45.929Z,28.57
2022-07-29T10:41:43.848Z,28.86
2022-07-29T10:44:26.583Z,28.60
2022-07-29T10:46:55.248Z,28.97
2022-07-29T10:49:25.274Z,29.04
2022-07-29T10:52:06.359Z,29.31
2022-07-29T10:54:37.110Z,29.47
2022-07-29T10:57:54.660Z,29.48
2022-07-29T11:00:27.318Z,29.50
2022-07-29T11:02:56.609Z,29.50
2022-07-29T11:05:32.320Z,29.49
2022-07-29T11:08:20.522Z,29.73
2022-07-29T11:10:54.542Z,29.97
2022-07-29T11:13:52.408Z,29.72
2022-07-29T11:16:26.738Z,29.62
2022-07-29T11:19:13.352Z,29.43
2022-07-29T11:21:53.914Z,29.25
2022-07-29T11:24:34.990Z,29.15
2022-07-29T11:27:13.260Z,29.46
2022-07-29T11:29:52.615Z,29.83
2022-07-29T11:32:24.081Z,29.75
2022-07-29T11:35:17.185Z,30.07
2022-07-29T11:37:52.484Z,30.03
2022-07-29T11:40:25.445Z,29.96
2022-07-29T11:42:53.591Z,30.06
2022-07-29T11:45:43.739Z,30.12
2022-07-29T11:48:28.933Z,29.99
2022-07-29T11:50:58.652Z,30.38
2022-07-29T11:53:29.288Z,30.10
2022-07-29T11:56:01.266Z,30.43
2022-07-29T11:58:31.760Z,30.11
2022-07-29T12:01:04.947Z,29.92
2022-07-29T12:03:36.164Z,30.51
2022-07-29T12:06:15.059Z,30.45
2022-07-29T12:08:44.666Z,30.66
2022-07-29T12:11:21.745Z,30.54
2022-07-29T12:13:51.870Z,30.25
2022-07-29T12:16:29.180Z,30.09
2022-07-29T12:19:02.978Z,30.30
2022-07-29T12:21:56.462Z,30.69
2022-07-29T12:24:26.711Z,30.39
2022-07-29T12:26:57.549Z,30.34
2022-07-29T12:29:35.621Z,30.67
2022-07-29T12:32:14.281Z,30.67
2022-07-29T12:34:42.628Z,30.73
2022-07-29T12:37:11.328Z,31.19
2022-07-29T12:39:39.300Z,31.07
2022-07-29T12:42:18.490Z,30.96
2022-07-29T12:44:50.761Z,30.74
2022-07-29T12:47:19.572Z,30.82
2022-07-29T12:49:47.929Z,30.61
2022-07-29T12:52:33.179Z,30.95
2022-07-29T12:55:02.031Z,30.96
2022-07-29T12:57:30.432Z,30.73
2022-07-29T13:00:14.099Z,30.82
2022-07-29T13:02:43.721Z,30.40
2022-07-29T13:05:12.419Z,30.11
2022-07-29T13:07:55.005Z,29.95
2022-07-29T13:10:30.549Z,29.24
2022-07-29T13:13:16.927Z,29.22
2022-07-29T13:15:46.057Z,29.41
2022-07-29T13:18:34.932Z,29.08
2022-07-29T13:21:16.470Z,29.12
2022-07-29T13:23:44.829Z,29.67
2022-07-29T13:26:12.933Z,29.70
2022-07-29T13:28:44.023Z,29.60
2022-07-29T13:31:12.309Z,29.89
2022-07-29T13:33:39.748Z,29.68
2022-07-29T13:36:07.414Z,29.89
2022-07-29T13:38:35.150Z,29.55
2022-07-29T13:41:03.513Z,29.79
2022-07-29T13:43:30.874Z,29.78
2022-07-29T13:45:58.636Z,29.57
2022-07-29T13:48:26.024Z,29.50
2022-07-29T13:50:53.395Z,29.88
2022-07-29T13:53:26.974Z,30.12
2022-07-29T13:55:55.192Z,30.45
2022-07-29T13:58:23.032Z,30.64
2022-07-29T14:00:50.960Z,30.88
2022-07-29T14:03:18.797Z,30.90
2022-07-29T14:05:46.215Z,31.00
2022-07-29T14:08:13.552Z,30.93
2022-07-29T14:10:41.239Z,31.13
2022-07-29T14:13:24.491Z,31.22
2022-07-29T14:15:54.103Z,31.00
2022-07-29T14:18:21.515Z,31.17
2022-07-29T14:20:49.318Z,31.09
2022-07-29T14:23:16.933Z,30.95
2022-07-29T14:25:49.856Z,30.88
2022-07-29T14:28:17.993Z,30.86
2022-07-29T14:30:45.421Z,30.98
2022-07-29T14:33:12.763Z,31.15
2022-07-29T14:35:43.031Z,31.35
2022-07-29T14:38:10.507Z,31.60
2022-07-29T14:40:38.303Z,31.63
2022-07-29T14:43:06.070Z,31.57
2022-07-29T14:45:33.481Z,31.77
2022-07-29T14:48:01.501Z,31.53
2022-07-29T14:50:31.927Z,31.71
2022-07-29T14:53:02.961Z,31.43
2022-07-29T14:55:31.023Z,31.72
2022-07-29T14:58:08.791Z,31.49
2022-07-29T15:00:38.985Z,31.79
2022-07-29T15:03:06.765Z,32.07
2022-07-29T15:05:39.852Z,32.37
2022-07-29T15:08:09.280Z,32.42
2022-07-29T15:10:39.231Z,32.97
2022-07-29T15:13:06.890Z,33.40
2022-07-29T15:15:34.411Z,33.06
2022-07-29T15:18:01.787Z,33.18
2022-07-29T15:20:29.618Z,33.22
2022-07-29T15:22:57.227Z,33.73
2022-07-29T15:25:26.547Z,33.66
2022-07-29T15:28:00.801Z,33.54
2022-07-29T15:30:33.311Z,33.67
2022-07-29T15:33:04.092Z,34.16
2022-07-29T15:35:40.268Z,33.36
2022-07-29T15:38:09.334Z,33.13
2022-07-29T15:40:42.302Z,32.74
2022-07-29T15:43:10.648Z,34.12
2022-07-29T15:45:43.766Z,34.88
2022-07-29T15:48:14.777Z,34.83
2022-07-29T15:50:47.121Z,34.73
2022-07-29T15:53:15.183Z,35.64
2022-07-29T15:55:42.562Z,34.59
2022-07-29T15:58:11.931Z,32.51
2022-07-29T16:00:39.732Z,31.31
2022-07-29T16:03:07.453Z,31.41
2022-07-29T16:05:34.812Z,32.68
2022-07-29T16:08:02.192Z,33.04
2022-07-29T16:10:30.005Z,32.33
2022-07-29T16:12:57.370Z,30.97
2022-07-29T16:15:24.827Z,30.90
2022-07-29T16:17:52.504Z,30.29
2022-07-29T16:20:21.072Z,30.39
2022-07-29T16:22:49.535Z,30.31
2022-07-29T16:25:19.661Z,30.07
2022-07-29T16:27:47.088Z,29.79
2022-07-29T16:30:14.488Z,29.78
2022-07-29T16:32:42.292Z,29.68
2022-07-29T16:35:10.071Z,29.66
2022-07-29T16:37:38.384Z,29.57
2022-07-29T16:40:07.813Z,29.39
2022-07-29T16:42:47.481Z,29.35
2022-07-29T16:45:18.046Z,29.27
2022-07-29T16:47:51.384Z,29.20
2022-07-29T16:50:20.470Z,29.08
2022-07-29T16:52:47.846Z,29.02
2022-07-29T16:55:15.190Z,28.78
2022-07-29T16:57:44.009Z,28.36
2022-07-29T17:00:12.080Z,28.45
2022-07-29T17:02:39.636Z,28.38
2022-07-29T17:05:08.639Z,28.32
2022-07-29T17:07:36.290Z,27.75
2022-07-29T17:10:13.959Z,27.02
2022-07-29T17:12:42.139Z,26.73
2022-07-29T17:15:19.313Z,26.58
2022-07-29T17:18:28.473Z,26.93
2022-07-29T17:20:55.820Z,27.02
2022-07-29T17:23:26.554Z,26.95
2022-07-29T17:25:53.979Z,26.90
2022-07-29T17:28:21.995Z,26.92
2022-07-29T17:30:49.823Z,26.84
2022-07-29T17:33:19.554Z,26.72
2022-07-29T17:36:07.031Z,26.64
2022-07-29T17:38:34.785Z,26.05
2022-07-29T17:41:02.457Z,26.41
2022-07-29T17:43:39.876Z,26.36
2022-07-29T17:46:08.141Z,26.34
2022-07-29T17:48:36.328Z,26.04
2022-07-29T17:51:04.075Z,26.09
2022-07-29T17:53:31.592Z,26.02
2022-07-29T17:56:01.685Z,25.84
2022-07-29T17:58:32.387Z,25.69
2022-07-29T18:01:00.028Z,25.71
2022-07-29T18:03:28.070Z,25.58
2022-07-29T18:05:55.805Z,25.44
2022-07-29T18:08:23.826Z,25.49
2022-07-29T18:11:01.759Z,25.30
2022-07-29T18:13:31.991Z,25.26
2022-07-29T18:16:00.632Z,24.80
2022-07-29T18:18:28.193Z,24.69
2022-07-29T18:20:55.994Z,24.50
2022-07-29T18:23:24.064Z,24.51
2022-07-29T18:26:05.631Z,24.58
2022-07-29T18:28:36.443Z,24.53
2022-07-29T18:31:04.566Z,24.23
2022-07-29T18:33:32.801Z,24.17
2022-07-29T18:36:11.389Z,24.18
2022-07-29T18:38:41.435Z,24.08
2022-07-29T18:41:09.321Z,24.09
2022-07-29T18:43:59.247Z,24.03
2022-07-29T18:46:28.972Z,23.28
2022-07-29T18:48:57.490Z,23.32
2022-07-29T18:51:24.957Z,23.18
2022-07-29T18:53:52.803Z,23.40
2022-07-29T18:56:21.508Z,23.50
2022-07-29T18:58:48.874Z,23.49
2022-07-29T19:01:22.175Z,23.43
2022-07-29T19:03:49.698Z,23.41
2022-07-29T19:06:17.547Z,23.31
2022-07-29T19:08:45.210Z,23.18
2022-07-29T19:11:15.243Z,23.18
2022-07-29T19:13:43.292Z,23.41
2022-07-29T19:16:15.328Z,23.28
2022-07-29T19:18:44.812Z,23.15
2022-07-29T19:21:33.283Z,23.02
2022-07-29T19:24:17.500Z,23.00
2022-07-29T19:26:55.673Z,22.87
2022-07-29T19:29:28.569Z,23.12
2022-07-29T19:31:55.921Z,22.88
2022-07-29T19:34:23.801Z,22.97
2022-07-29T19:36:51.260Z,22.79
2022-07-29T19:39:18.713Z,22.64
2022-07-29T19:42:03.389Z,22.62
2022-07-29T19:44:31.074Z,22.60
2022-07-29T19:47:02.733Z,22.30
2022-07-29T19:49:30.451Z,21.84
2022-07-29T19:51:57.764Z,21.86
2022-07-29T19:54:26.708Z,21.54
2022-07-29T19:56:54.707Z,21.80
2022-07-29T19:59:24.588Z,22.08
2022-07-29T20:01:52.161Z,22.12
2022-07-29T20:04:19.880Z,22.18
2022-07-29T20:06:49.669Z,22.06
2022-07-29T20:09:20.610Z,21.91
2022-07-29T20:11:48.619Z,21.90
2022-07-29T20:14:16.043Z,21.94
2022-07-29T20:16:43.388Z,21.82
2022-07-29T20:19:11.109Z,21.69
2022-07-29T20:21:38.574Z,21.62
2022-07-29T20:24:06.329Z,21.27
2022-07-29T20:29:05.457Z,21.51
2022-07-29T20:31:33.306Z,21.47
2022-07-29T20:34:02.139Z,21.09
2022-07-29T20:36:29.624Z,21.10
2022-07-29T20:38:57.240Z,21.19
2022-07-29T20:41:24.983Z,21.13
2022-07-29T20:43:53.008Z,21.15
2022-07-29T20:46:20.468Z,21.23
2022-07-29T20:48:48.354Z,21.23
2022-07-29T20:51:15.784Z,21.02
2022-07-29T20:53:43.160Z,20.81
2022-07-29T20:56:12.605Z,20.97
2022-07-29T20:58:40.995Z,20.89
2022-07-29T21:01:09.865Z,21.05
2022-07-29T21:03:37.745Z,20.71
2022-07-29T21:06:05.160Z,20.91
2022-07-29T21:08:32.523Z,20.83
2022-07-29T21:11:00.181Z,20.77
2022-07-29T21:13:27.744Z,20.82
2022-07-29T21:15:59.974Z,20.74
2022-07-29T21:18:32.463Z,20.67
2022-07-29T21:21:01.376Z,20.81
2022-07-29T21:23:30.325Z,20.82
2022-07-29T21:25:58.089Z,20.79
2022-07-29T21:28:29.537Z,20.62
2022-07-29T21:31:00.872Z,20.54
2022-07-29T21:33:30.084Z,20.25
2022-07-29T21:36:15.996Z,20.35
2022-07-29T21:38:45.440Z,20.33
2022-07-29T21:41:14.964Z,20.32
2022-07-29T21:43:42.790Z,20.38
2022-07-29T21:46:10.546Z,20.14
2022-07-29T21:48:42.420Z,20.19
2022-07-29T21:51:11.683Z,20.00
2022-07-29T21:53:39.289Z,19.72
2022-07-29T21:56:07.611Z,19.84
2022-07-29T21:58:40.685Z,19.95
2022-07-29T22:01:08.299Z,19.95
2022-07-29T22:03:36.134Z,19.77
2022-07-29T22:06:03.855Z,19.72
2022-07-29T22:08:31.168Z,19.58
2022-07-29T22:10:59.026Z,19.53
2022-07-29T22:13:26.681Z,19.61
2022-07-29T22:15:54.043Z,19.68
2022-07-29T22:18:24.708Z,19.58
2022-07-29T22:20:51.967Z,19.57
2022-07-29T22:23:19.213Z,19.53
2022-07-29T22:25:46.911Z,19.39
2022-07-29T22:28:14.137Z,19.36
2022-07-29T22:30:41.424Z,19.26
2022-07-29T22:33:09.117Z,18.96
2022-07-29T22:35:45.137Z,18.99
2022-07-29T22:38:19.685Z,19.11
2022-07-29T22:40:50.809Z,19.25
2022-07-29T22:43:18.844Z,19.23
2022-07-29T22:45:46.176Z,19.29
2022-07-29T22:48:13.611Z,19.33
2022-07-29T22:50:42.051Z,19.38
2022-07-29T22:53:09.422Z,19.33
2022-07-29T22:55:36.801Z,19.12
2022-07-29T22:58:04.406Z,19.31
2022-07-29T23:00:31.695Z,19.24
2022-07-29T23:02:58.987Z,19.26
2022-07-29T23:05:26.545Z,19.12
2022-07-29T23:07:53.833Z,19.12
2022-07-29T23:10:22.917Z,19.21
2022-07-29T23:12:50.687Z,19.16
2022-07-29T23:15:18.173Z,19.17
2022-07-29T23:17:45.459Z,18.96
2022-07-29T23:20:14.792Z,18.97
2022-07-29T23:22:42.335Z,18.80
2022-07-29T23:25:09.684Z,19.05
2022-07-29T23:27:37.543Z,18.91
2022-07-29T23:30:05.367Z,18.96
2022-07-29T23:32:32.646Z,18.91
2022-07-29T23:35:00.515Z,18.93
2022-07-29T23:37:28.055Z,18.68
2022-07-29T23:39:55.486Z,18.47
2022-07-29T23:42:23.314Z,18.62
2022-07-29T23:44:50.690Z,18.64
2022-07-29T23:47:18.155Z,18.49
2022-07-29T23:49:46.604Z,18.59
2022-07-29T23:52:13.772Z,18.68
2022-07-29T23:54:41.019Z,18.69
2022-07-29T23:57:09.022Z,18.14
2022-07-29T23:59:36.325Z,18.25
